sensor_id;sensor_type;location;lat;lon;timestamp;pressure;altitude;pressure_sealevel;temperature;humidity
71465;BME280;59274;49.874;9.154;2023-12-07T00:00:40;100683.75;;;2.56;100.00
71465;BME280;59274;49.874;9.154;2023-12-07T00:03:05;100684.13;;;2.63;100.00
71465;BME280;59274;49.874;9.154;2023-12-07T00:05:34;100694.50;;;2.64;100.00
71465;BME280;59274;49.874;9.154;2023-12-07T00:07:59;100700.16;;;2.54;100.00
71465;BME280;59274;49.874;9.154;2023-12-07T00:10:24;100701.25;;;2.53;100.00
71465;BME280;59274;49.874;9.154;2023-12-07T00:12:50;100698.63;;;2.62;100.00
71465;BME280;59274;49.874;9.154;2023-12-07T00:15:15;100696.53;;;2.59;100.00
71465;BME280;59274;49.874;9.154;2023-12-07T00:17:41;100698.13;;;2.60;100.00
71465;BME280;59274;49.874;9.154;2023-12-07T00:20:10;100695.16;;;2.61;100.00
71465;BME280;59274;49.874;9.154;2023-12-07T00:22:36;100689.66;;;2.66;100.00
71465;BME280;59274;49.874;9.154;2023-12-07T00:25:01;100698.13;;;2.60;100.00
71465;BME280;59274;49.874;9.154;2023-12-07T00:27:27;100696.25;;;2.60;100.00
71465;BME280;59274;49.874;9.154;2023-12-07T00:29:52;100704.22;;;2.52;100.00
71465;BME280;59274;49.874;9.154;2023-12-07T00:32:17;100703.50;;;2.60;100.00
71465;BME280;59274;49.874;9.154;2023-12-07T00:34:43;100707.09;;;2.55;100.00
71465;BME280;59274;49.874;9.154;2023-12-07T00:37:08;100693.69;;;2.55;100.00
71465;BME280;59274;49.874;9.154;2023-12-07T00:39:34;100697.78;;;2.53;100.00
71465;BME280;59274;49.874;9.154;2023-12-07T00:42:00;100704.06;;;2.48;100.00
71465;BME280;59274;49.874;9.154;2023-12-07T00:44:25;100700.47;;;2.53;100.00
71465;BME280;59274;49.874;9.154;2023-12-07T00:46:50;100712.28;;;2.52;100.00
71465;BME280;59274;49.874;9.154;2023-12-07T00:49:16;100710.81;;;2.46;100.00
71465;BME280;59274;49.874;9.154;2023-12-07T00:51:41;100706.38;;;2.41;100.00
71465;BME280;59274;49.874;9.154;2023-12-07T00:54:07;100712.72;;;2.45;100.00
71465;BME280;59274;49.874;9.154;2023-12-07T00:56:32;100720.38;;;2.38;100.00
71465;BME280;59274;49.874;9.154;2023-12-07T00:58:57;100715.81;;;2.39;100.00
71465;BME280;59274;49.874;9.154;2023-12-07T01:01:23;100718.19;;;2.40;100.00
71465;BME280;59274;49.874;9.154;2023-12-07T01:03:48;100722.94;;;2.43;100.00
71465;BME280;59274;49.874;9.154;2023-12-07T01:06:14;100732.50;;;2.35;100.00
71465;BME280;59274;49.874;9.154;2023-12-07T01:08:41;100738.66;;;2.36;100.00
71465;BME280;59274;49.874;9.154;2023-12-07T01:11:07;100732.47;;;2.27;100.00
71465;BME280;59274;49.874;9.154;2023-12-07T01:13:32;100739.69;;;2.26;100.00
71465;BME280;59274;49.874;9.154;2023-12-07T01:15:58;100742.97;;;2.23;100.00
71465;BME280;59274;49.874;9.154;2023-12-07T01:18:23;100744.88;;;2.23;100.00
71465;BME280;59274;49.874;9.154;2023-12-07T01:20:49;100742.69;;;2.25;100.00
71465;BME280;59274;49.874;9.154;2023-12-07T01:23:14;100736.75;;;2.14;100.00
71465;BME280;59274;49.874;9.154;2023-12-07T01:25:40;100744.13;;;2.09;100.00
71465;BME280;59274;49.874;9.154;2023-12-07T01:28:05;100744.94;;;1.95;100.00
71465;BME280;59274;49.874;9.154;2023-12-07T01:30:31;100741.97;;;1.97;100.00
71465;BME280;59274;49.874;9.154;2023-12-07T01:32:56;100758.13;;;1.92;100.00
71465;BME280;59274;49.874;9.154;2023-12-07T01:35:22;100756.16;;;1.98;100.00
71465;BME280;59274;49.874;9.154;2023-12-07T01:37:47;100756.34;;;2.01;100.00
71465;BME280;59274;49.874;9.154;2023-12-07T01:40:13;100754.69;;;1.91;100.00
71465;BME280;59274;49.874;9.154;2023-12-07T01:42:40;100761.13;;;1.90;100.00
71465;BME280;59274;49.874;9.154;2023-12-07T01:45:06;100756.19;;;1.84;100.00
71465;BME280;59274;49.874;9.154;2023-12-07T01:47:33;100765.88;;;1.93;100.00
71465;BME280;59274;49.874;9.154;2023-12-07T01:50:00;100761.97;;;1.77;100.00
71465;BME280;59274;49.874;9.154;2023-12-07T01:52:28;100761.06;;;1.68;100.00
71465;BME280;59274;49.874;9.154;2023-12-07T01:54:54;100760.19;;;1.59;100.00
71465;BME280;59274;49.874;9.154;2023-12-07T01:57:20;100759.09;;;1.46;100.00
71465;BME280;59274;49.874;9.154;2023-12-07T01:59:46;100763.28;;;1.39;100.00
71465;BME280;59274;49.874;9.154;2023-12-07T02:02:12;100763.28;;;1.39;100.00
71465;BME280;59274;49.874;9.154;2023-12-07T02:04:38;100762.78;;;1.23;100.00
71465;BME280;59274;49.874;9.154;2023-12-07T02:07:04;100761.19;;;1.22;100.00
71465;BME280;59274;49.874;9.154;2023-12-07T02:09:29;100757.22;;;1.20;100.00
71465;BME280;59274;49.874;9.154;2023-12-07T02:11:55;100756.31;;;0.97;100.00
71465;BME280;59274;49.874;9.154;2023-12-07T02:14:20;100762.66;;;1.01;100.00
71465;BME280;59274;49.874;9.154;2023-12-07T02:20:01;100762.22;;;0.94;100.00
71465;BME280;59274;49.874;9.154;2023-12-07T02:22:52;100772.03;;;0.85;100.00
71465;BME280;59274;49.874;9.154;2023-12-07T02:25:18;100768.25;;;0.86;100.00
71465;BME280;59274;49.874;9.154;2023-12-07T02:27:47;100767.38;;;0.76;100.00
71465;BME280;59274;49.874;9.154;2023-12-07T02:30:14;100775.19;;;0.87;100.00
71465;BME280;59274;49.874;9.154;2023-12-07T02:32:44;100774.53;;;0.95;100.00
71465;BME280;59274;49.874;9.154;2023-12-07T02:35:11;100777.81;;;1.05;100.00
71465;BME280;59274;49.874;9.154;2023-12-07T02:37:49;100771.00;;;1.13;100.00
71465;BME280;59274;49.874;9.154;2023-12-07T02:40:24;100769.41;;;1.12;100.00
71465;BME280;59274;49.874;9.154;2023-12-07T02:42:54;100773.69;;;1.13;100.00
71465;BME280;59274;49.874;9.154;2023-12-07T02:45:20;100771.09;;;1.22;100.00
71465;BME280;59274;49.874;9.154;2023-12-07T02:47:46;100776.34;;;1.13;100.00
71465;BME280;59274;49.874;9.154;2023-12-07T02:50:12;100782.19;;;1.15;100.00
71465;BME280;59274;49.874;9.154;2023-12-07T02:52:38;100772.94;;;1.07;100.00
71465;BME280;59274;49.874;9.154;2023-12-07T02:55:04;100782.66;;;1.03;100.00
71465;BME280;59274;49.874;9.154;2023-12-07T02:57:30;100786.25;;;1.12;100.00
71465;BME280;59274;49.874;9.154;2023-12-07T02:59:56;100785.75;;;1.24;100.00
71465;BME280;59274;49.874;9.154;2023-12-07T03:02:21;100787.34;;;1.25;100.00
71465;BME280;59274;49.874;9.154;2023-12-07T03:04:47;100790.31;;;1.37;100.00
71465;BME280;59274;49.874;9.154;2023-12-07T03:07:12;100773.69;;;1.27;100.00
71465;BME280;59274;49.874;9.154;2023-12-07T03:09:38;100785.19;;;1.27;100.00
71465;BME280;59274;49.874;9.154;2023-12-07T03:12:03;100787.53;;;1.15;100.00
71465;BME280;59274;49.874;9.154;2023-12-07T03:14:29;100783.66;;;1.21;100.00
71465;BME280;59274;49.874;9.154;2023-12-07T03:16:54;100785.75;;;1.24;100.00
71465;BME280;59274;49.874;9.154;2023-12-07T03:19:20;100790.91;;;1.21;100.00
71465;BME280;59274;49.874;9.154;2023-12-07T03:21:45;100779.22;;;1.16;100.00
71465;BME280;59274;49.874;9.154;2023-12-07T03:24:11;100786.84;;;1.09;100.00
71465;BME280;59274;49.874;9.154;2023-12-07T03:26:39;100783.84;;;0.97;100.00
71465;BME280;59274;49.874;9.154;2023-12-07T03:29:05;100790.38;;;0.91;100.00
71465;BME280;59274;49.874;9.154;2023-12-07T03:31:31;100786.69;;;0.87;100.00
71465;BME280;59274;49.874;9.154;2023-12-07T03:33:56;100791.34;;;0.82;100.00
71465;BME280;59274;49.874;9.154;2023-12-07T03:36:22;100784.69;;;0.79;100.00
71465;BME280;59274;49.874;9.154;2023-12-07T03:38:48;100786.88;;;0.77;100.00
71465;BME280;59274;49.874;9.154;2023-12-07T03:41:14;100791.13;;;0.78;100.00
71465;BME280;59274;49.874;9.154;2023-12-07T03:43:39;100792.00;;;0.73;100.00
71465;BME280;59274;49.874;9.154;2023-12-07T03:46:06;100790.72;;;0.71;100.00
71465;BME280;59274;49.874;9.154;2023-12-07T03:48:32;100802.06;;;0.63;100.00
71465;BME280;59274;49.874;9.154;2023-12-07T03:50:57;100795.09;;;0.48;100.00
71465;BME280;59274;49.874;9.154;2023-12-07T03:53:23;100797.25;;;0.46;100.00
71465;BME280;59274;49.874;9.154;2023-12-07T03:55:48;100794.28;;;0.48;100.00
71465;BME280;59274;49.874;9.154;2023-12-07T03:58:13;100798.59;;;0.44;100.00
71465;BME280;59274;49.874;9.154;2023-12-07T04:00:39;100804.56;;;0.41;100.00
71465;BME280;59274;49.874;9.154;2023-12-07T04:03:05;100807.41;;;0.44;100.00
71465;BME280;59274;49.874;9.154;2023-12-07T04:05:31;100804.84;;;0.39;100.00
71465;BME280;59274;49.874;9.154;2023-12-07T04:07:57;100807.59;;;0.34;100.00
71465;BME280;59274;49.874;9.154;2023-12-07T04:10:22;100801.38;;;0.20;100.00
71465;BME280;59274;49.874;9.154;2023-12-07T04:12:48;100803.53;;;0.18;100.00
71465;BME280;59274;49.874;9.154;2023-12-07T04:15:13;100807.72;;;0.24;100.00
71465;BME280;59274;49.874;9.154;2023-12-07T04:17:39;100812.06;;;0.20;100.00
71465;BME280;59274;49.874;9.154;2023-12-07T04:20:04;100809.59;;;0.23;100.00
71465;BME280;59274;49.874;9.154;2023-12-07T04:22:31;100820.34;;;0.18;100.00
71465;BME280;59274;49.874;9.154;2023-12-07T04:24:56;100817.88;;;0.03;100.00
71465;BME280;59274;49.874;9.154;2023-12-07T04:27:22;100809.78;;;-0.11;100.00
71465;BME280;59274;49.874;9.154;2023-12-07T04:29:47;100806.78;;;-0.04;100.00
71465;BME280;59274;49.874;9.154;2023-12-07T04:32:12;100808.72;;;-0.10;100.00
71465;BME280;59274;49.874;9.154;2023-12-07T04:34:38;100807.41;;;-0.12;100.00
71465;BME280;59274;49.874;9.154;2023-12-07T04:37:03;100803.78;;;-0.21;100.00
71465;BME280;59274;49.874;9.154;2023-12-07T04:39:29;100803.84;;;-0.26;100.00
71465;BME280;59274;49.874;9.154;2023-12-07T04:41:54;100806.44;;;-0.21;100.00
71465;BME280;59274;49.874;9.154;2023-12-07T04:44:20;100813.72;;;-0.27;100.00
71465;BME280;59274;49.874;9.154;2023-12-07T04:46:45;100816.66;;;-0.28;100.00
71465;BME280;59274;49.874;9.154;2023-12-07T04:49:11;100814.00;;;-0.28;100.00
71465;BME280;59274;49.874;9.154;2023-12-07T04:51:36;100810.84;;;-0.30;100.00
71465;BME280;59274;49.874;9.154;2023-12-07T04:54:02;100813.53;;;-0.30;100.00
71465;BME280;59274;49.874;9.154;2023-12-07T04:56:27;100803.56;;;-0.25;100.00
71465;BME280;59274;49.874;9.154;2023-12-07T04:58:53;100812.53;;;-0.40;100.00
71465;BME280;59274;49.874;9.154;2023-12-07T05:01:18;100814.22;;;-0.44;100.00
71465;BME280;59274;49.874;9.154;2023-12-07T05:03:46;100824.88;;;-0.44;100.00
71465;BME280;59274;49.874;9.154;2023-12-07T05:06:14;100821.00;;;-0.32;100.00
71465;BME280;59274;49.874;9.154;2023-12-07T05:08:39;100821.25;;;-0.29;100.00
71465;BME280;59274;49.874;9.154;2023-12-07T05:11:05;100828.00;;;-0.36;100.00
71465;BME280;59274;49.874;9.154;2023-12-07T05:13:32;100837.53;;;-0.30;100.00
71465;BME280;59274;49.874;9.154;2023-12-07T05:15:59;100830.53;;;-0.26;100.00
71465;BME280;59274;49.874;9.154;2023-12-07T05:18:25;100840.69;;;-0.28;100.00
71465;BME280;59274;49.874;9.154;2023-12-07T05:20:50;100832.91;;;-0.25;100.00
71465;BME280;59274;49.874;9.154;2023-12-07T05:23:16;100829.38;;;-0.20;100.00
71465;BME280;59274;49.874;9.154;2023-12-07T05:25:42;100837.91;;;-0.18;100.00
71465;BME280;59274;49.874;9.154;2023-12-07T05:28:08;100834.88;;;-0.30;100.00
71465;BME280;59274;49.874;9.154;2023-12-07T05:30:34;100833.38;;;-0.18;100.00
71465;BME280;59274;49.874;9.154;2023-12-07T05:33:01;100840.03;;;-0.15;100.00
71465;BME280;59274;49.874;9.154;2023-12-07T05:35:26;100843.13;;;-0.08;100.00
71465;BME280;59274;49.874;9.154;2023-12-07T05:37:52;100844.66;;;-0.02;100.00
71465;BME280;59274;49.874;9.154;2023-12-07T05:40:17;100846.38;;;-0.11;100.00
71465;BME280;59274;49.874;9.154;2023-12-07T05:42:44;100842.03;;;-0.07;100.00
71465;BME280;59274;49.874;9.154;2023-12-07T05:45:09;100845.84;;;-0.13;100.00
71465;BME280;59274;49.874;9.154;2023-12-07T05:47:35;100842.34;;;-0.09;100.00
71465;BME280;59274;49.874;9.154;2023-12-07T05:50:01;100853.22;;;-0.05;100.00
71465;BME280;59274;49.874;9.154;2023-12-07T05:52:28;100853.75;;;-0.03;100.00
71465;BME280;59274;49.874;9.154;2023-12-07T05:54:54;100856.41;;;-0.03;100.00
71465;BME280;59274;49.874;9.154;2023-12-07T05:57:19;100846.28;;;-0.06;100.00
71465;BME280;59274;49.874;9.154;2023-12-07T05:59:45;100849.56;;;-0.09;100.00
71465;BME280;59274;49.874;9.154;2023-12-07T06:02:10;100849.03;;;-0.11;100.00
71465;BME280;59274;49.874;9.154;2023-12-07T06:04:36;100847.97;;;-0.10;100.00
71465;BME280;59274;49.874;9.154;2023-12-07T06:07:01;100847.44;;;-0.12;100.00
71465;BME280;59274;49.874;9.154;2023-12-07T06:09:27;100852.06;;;-0.18;100.00
71465;BME280;59274;49.874;9.154;2023-12-07T06:11:54;100855.38;;;-0.07;100.00
71465;BME280;59274;49.874;9.154;2023-12-07T06:14:20;100851.63;;;-0.06;100.00
71465;BME280;59274;49.874;9.154;2023-12-07T06:16:45;100855.63;;;-0.04;100.00
71465;BME280;59274;49.874;9.154;2023-12-07T06:19:10;100856.97;;;-0.06;100.00
71465;BME280;59274;49.874;9.154;2023-12-07T06:21:36;100862.94;;;-0.14;100.00
71465;BME280;59274;49.874;9.154;2023-12-07T06:24:01;100868.59;;;-0.16;100.00
71465;BME280;59274;49.874;9.154;2023-12-07T06:26:30;100859.25;;;-0.18;100.00
71465;BME280;59274;49.874;9.154;2023-12-07T06:28:55;100866.94;;;-0.12;100.00
71465;BME280;59274;49.874;9.154;2023-12-07T06:31:30;100865.84;;;-0.11;100.00
71465;BME280;59274;49.874;9.154;2023-12-07T06:33:55;100871.97;;;-0.10;100.00
71465;BME280;59274;49.874;9.154;2023-12-07T06:36:22;100873.00;;;-0.06;100.00
71465;BME280;59274;49.874;9.154;2023-12-07T06:38:48;100875.03;;;0.02;100.00
71465;BME280;59274;49.874;9.154;2023-12-07T06:41:14;100875.19;;;0.11;100.00
71465;BME280;59274;49.874;9.154;2023-12-07T06:43:40;100874.41;;;0.10;100.00
71465;BME280;59274;49.874;9.154;2023-12-07T06:46:06;100867.97;;;0.11;100.00
71465;BME280;59274;49.874;9.154;2023-12-07T06:48:31;100862.47;;;0.03;100.00
71465;BME280;59274;49.874;9.154;2023-12-07T06:50:57;100874.22;;;0.02;100.00
71465;BME280;59274;49.874;9.154;2023-12-07T06:53:22;100871.06;;;-0.01;100.00
71465;BME280;59274;49.874;9.154;2023-12-07T06:55:47;100871.88;;;0.00;100.00
71465;BME280;59274;49.874;9.154;2023-12-07T06:58:13;100877.16;;;0.05;100.00
71465;BME280;59274;49.874;9.154;2023-12-07T07:00:38;100879.38;;;-0.02;100.00
71465;BME280;59274;49.874;9.154;2023-12-07T07:03:04;100885.25;;;-0.05;100.00
71465;BME280;59274;49.874;9.154;2023-12-07T07:05:31;100880.66;;;0.00;100.00
71465;BME280;59274;49.874;9.154;2023-12-07T07:07:56;100881.75;;;-0.01;100.00
71465;BME280;59274;49.874;9.154;2023-12-07T07:10:22;100883.56;;;0.04;100.00
71465;BME280;59274;49.874;9.154;2023-12-07T07:12:47;100889.19;;;0.03;100.00
71465;BME280;59274;49.874;9.154;2023-12-07T07:15:13;100887.03;;;0.05;100.00
71465;BME280;59274;49.874;9.154;2023-12-07T07:17:38;100885.72;;;0.02;100.00
71465;BME280;59274;49.874;9.154;2023-12-07T07:20:04;100892.19;;;-0.04;100.00
71465;BME280;59274;49.874;9.154;2023-12-07T07:22:30;100898.34;;;-0.04;100.00
71465;BME280;59274;49.874;9.154;2023-12-07T07:24:55;100900.66;;;0.03;100.00
71465;BME280;59274;49.874;9.154;2023-12-07T07:27:20;100906.72;;;0.09;100.00
71465;BME280;59274;49.874;9.154;2023-12-07T07:29:46;100903.25;;;0.08;100.00
71465;BME280;59274;49.874;9.154;2023-12-07T07:32:11;100903.69;;;0.15;100.00
71465;BME280;59274;49.874;9.154;2023-12-07T07:34:37;100902.22;;;0.28;100.00
71465;BME280;59274;49.874;9.154;2023-12-07T07:37:02;100910.25;;;0.28;100.00
71465;BME280;59274;49.874;9.154;2023-12-07T07:39:28;100910.97;;;0.33;100.00
71465;BME280;59274;49.874;9.154;2023-12-07T07:41:53;100907.34;;;0.43;100.00
71465;BME280;59274;49.874;9.154;2023-12-07T07:44:19;100908.44;;;0.42;100.00
71465;BME280;59274;49.874;9.154;2023-12-07T07:46:44;100908.69;;;0.22;100.00
71465;BME280;59274;49.874;9.154;2023-12-07T07:49:11;100908.41;;;0.23;100.00
71465;BME280;59274;49.874;9.154;2023-12-07T07:51:36;100911.81;;;0.29;100.00
71465;BME280;59274;49.874;9.154;2023-12-07T07:54:02;100924.53;;;0.37;100.00
71465;BME280;59274;49.874;9.154;2023-12-07T07:56:27;100916.97;;;0.44;100.00
71465;BME280;59274;49.874;9.154;2023-12-07T07:58:52;100907.34;;;0.43;100.00
71465;BME280;59274;49.874;9.154;2023-12-07T08:01:18;100924.13;;;0.49;100.00
71465;BME280;59274;49.874;9.154;2023-12-07T08:03:43;100923.72;;;0.36;100.00
71465;BME280;59274;49.874;9.154;2023-12-07T08:06:09;100918.25;;;0.47;100.00
71465;BME280;59274;49.874;9.154;2023-12-07T08:08:34;100913.13;;;0.50;100.00
71465;BME280;59274;49.874;9.154;2023-12-07T08:10:59;100911.69;;;0.39;100.00
71465;BME280;59274;49.874;9.154;2023-12-07T08:13:26;100915.22;;;0.34;100.00
71465;BME280;59274;49.874;9.154;2023-12-07T08:15:53;100921.22;;;0.26;100.00
71465;BME280;59274;49.874;9.154;2023-12-07T08:18:18;100916.06;;;0.30;100.00
71465;BME280;59274;49.874;9.154;2023-12-07T08:20:44;100914.34;;;0.20;100.00
71465;BME280;59274;49.874;9.154;2023-12-07T08:23:09;100911.94;;;0.19;100.00
71465;BME280;59274;49.874;9.154;2023-12-07T08:25:38;100915.63;;;0.23;100.00
71465;BME280;59274;49.874;9.154;2023-12-07T08:28:03;100921.84;;;0.37;100.00
71465;BME280;59274;49.874;9.154;2023-12-07T08:30:29;100914.53;;;0.48;100.00
71465;BME280;59274;49.874;9.154;2023-12-07T08:32:54;100907.94;;;0.40;100.00
71465;BME280;59274;49.874;9.154;2023-12-07T08:35:20;100908.16;;;0.44;100.00
71465;BME280;59274;49.874;9.154;2023-12-07T08:37:45;100903.84;;;0.48;100.00
71465;BME280;59274;49.874;9.154;2023-12-07T08:40:10;100900.78;;;0.35;100.00
71465;BME280;59274;49.874;9.154;2023-12-07T08:42:36;100901.72;;;0.45;100.00
71465;BME280;59274;49.874;9.154;2023-12-07T08:45:02;100891.19;;;0.34;100.00
71465;BME280;59274;49.874;9.154;2023-12-07T08:47:28;100897.81;;;0.37;100.00
71465;BME280;59274;49.874;9.154;2023-12-07T08:49:55;100893.56;;;0.36;100.00
71465;BME280;59274;49.874;9.154;2023-12-07T08:52:20;100890.69;;;0.32;100.00
71465;BME280;59274;49.874;9.154;2023-12-07T08:54:46;100884.69;;;0.41;100.00
71465;BME280;59274;49.874;9.154;2023-12-07T08:57:12;100882.19;;;0.49;100.00
71465;BME280;59274;49.874;9.154;2023-12-07T08:59:37;100880.63;;;0.43;100.00
71465;BME280;59274;49.874;9.154;2023-12-07T09:02:03;100871.84;;;0.61;100.00
71465;BME280;59274;49.874;9.154;2023-12-07T09:04:28;100870.97;;;0.66;100.00
71465;BME280;59274;49.874;9.154;2023-12-07T09:06:54;100868.50;;;0.69;100.00
71465;BME280;59274;49.874;9.154;2023-12-07T09:09:20;100867.28;;;0.62;100.00
71465;BME280;59274;49.874;9.154;2023-12-07T09:11:45;100857.03;;;0.69;100.00
71465;BME280;59274;49.874;9.154;2023-12-07T09:14:11;100867.06;;;0.77;100.00
71465;BME280;59274;49.874;9.154;2023-12-07T09:16:43;100872.19;;;0.92;100.00
71465;BME280;59274;49.874;9.154;2023-12-07T09:19:10;100874.06;;;0.92;100.00
71465;BME280;59274;49.874;9.154;2023-12-07T09:21:35;100872.50;;;0.86;100.00
71465;BME280;59274;49.874;9.154;2023-12-07T09:24:01;100870.63;;;0.86;100.00
71465;BME280;59274;49.874;9.154;2023-12-07T09:26:26;100875.19;;;1.04;100.00
71465;BME280;59274;49.874;9.154;2023-12-07T09:28:52;100873.63;;;1.17;100.00
71465;BME280;59274;49.874;9.154;2023-12-07T09:31:18;100879.63;;;1.09;100.00
71465;BME280;59274;49.874;9.154;2023-12-07T09:33:43;100873.75;;;0.93;100.00
71465;BME280;59274;49.874;9.154;2023-12-07T09:36:09;100874.56;;;1.07;100.00
71465;BME280;59274;49.874;9.154;2023-12-07T09:38:36;100869.88;;;1.18;100.00
71465;BME280;59274;49.874;9.154;2023-12-07T09:41:03;100863.56;;;1.41;100.00
71465;BME280;59274;49.874;9.154;2023-12-07T09:43:29;100866.66;;;1.48;100.00
71465;BME280;59274;49.874;9.154;2023-12-07T09:45:54;100861.38;;;1.57;100.00
71465;BME280;59274;49.874;9.154;2023-12-07T09:48:21;100871.41;;;1.65;100.00
71465;BME280;59274;49.874;9.154;2023-12-07T09:50:46;100864.19;;;1.66;100.00
71465;BME280;59274;49.874;9.154;2023-12-07T09:53:12;100860.41;;;1.67;100.00
71465;BME280;59274;49.874;9.154;2023-12-07T09:55:38;100865.38;;;1.73;100.00
71465;BME280;59274;49.874;9.154;2023-12-07T09:58:04;100869.13;;;1.72;100.00
71465;BME280;59274;49.874;9.154;2023-12-07T10:00:30;100869.75;;;1.69;100.00
71465;BME280;59274;49.874;9.154;2023-12-07T10:02:55;100874.09;;;1.79;100.00
71465;BME280;59274;49.874;9.154;2023-12-07T10:05:21;100877.50;;;1.84;100.00
71465;BME280;59274;49.874;9.154;2023-12-07T10:07:49;100870.94;;;1.63;100.00
71465;BME280;59274;49.874;9.154;2023-12-07T10:10:16;100870.16;;;1.76;100.00
71465;BME280;59274;49.874;9.154;2023-12-07T10:12:48;100873.81;;;1.94;100.00
71465;BME280;59274;49.874;9.154;2023-12-07T10:15:16;100860.41;;;1.94;100.00
71465;BME280;59274;49.874;9.154;2023-12-07T10:17:54;100858.75;;;1.84;100.00
71465;BME280;59274;49.874;9.154;2023-12-07T10:20:21;100866.38;;;1.77;100.00
71465;BME280;59274;49.874;9.154;2023-12-07T10:23:03;100851.41;;;1.76;100.00
71465;BME280;59274;49.874;9.154;2023-12-07T10:25:33;100838.81;;;1.77;100.00
71465;BME280;59274;49.874;9.154;2023-12-07T10:28:00;100845.34;;;1.84;100.00
71465;BME280;59274;49.874;9.154;2023-12-07T10:30:27;100855.16;;;1.62;100.00
71465;BME280;59274;49.874;9.154;2023-12-07T10:32:52;100844.25;;;1.58;100.00
71465;BME280;59274;49.874;9.154;2023-12-07T10:35:18;100834.44;;;1.67;100.00
71465;BME280;59274;49.874;9.154;2023-12-07T10:37:45;100830.84;;;1.85;100.00
71465;BME280;59274;49.874;9.154;2023-12-07T10:40:12;100826.50;;;1.89;100.00
71465;BME280;59274;49.874;9.154;2023-12-07T10:42:41;100826.88;;;1.96;100.00
71465;BME280;59274;49.874;9.154;2023-12-07T10:45:07;100826.66;;;2.07;100.00
71465;BME280;59274;49.874;9.154;2023-12-07T10:47:37;100825.75;;;2.25;100.00
71465;BME280;59274;49.874;9.154;2023-12-07T10:50:07;100809.66;;;2.25;100.00
71465;BME280;59274;49.874;9.154;2023-12-07T10:52:36;100812.09;;;2.35;100.00
71465;BME280;59274;49.874;9.154;2023-12-07T10:55:05;100810.91;;;2.41;100.00
71465;BME280;59274;49.874;9.154;2023-12-07T10:57:33;100805.19;;;2.34;100.00
71465;BME280;59274;49.874;9.154;2023-12-07T11:00:01;100800.91;;;2.33;100.00
71465;BME280;59274;49.874;9.154;2023-12-07T11:02:27;100798.53;;;2.31;100.00
71465;BME280;59274;49.874;9.154;2023-12-07T11:04:56;100788.09;;;2.30;100.00
71465;BME280;59274;49.874;9.154;2023-12-07T11:07:24;100796.06;;;2.21;100.00
71465;BME280;59274;49.874;9.154;2023-12-07T11:10:00;100807.31;;;2.10;100.00
71465;BME280;59274;49.874;9.154;2023-12-07T11:12:33;100805.34;;;2.02;100.00
71465;BME280;59274;49.874;9.154;2023-12-07T11:15:01;100796.81;;;2.00;100.00
71465;BME280;59274;49.874;9.154;2023-12-07T11:17:27;100803.28;;;1.99;100.00
71465;BME280;59274;49.874;9.154;2023-12-07T11:19:53;100793.03;;;2.01;100.00
71465;BME280;59274;49.874;9.154;2023-12-07T11:22:19;100802.66;;;2.02;100.00
71465;BME280;59274;49.874;9.154;2023-12-07T11:24:55;100791.84;;;2.07;100.00
71465;BME280;59274;49.874;9.154;2023-12-07T11:27:23;100786.38;;;2.12;100.00
71465;BME280;59274;49.874;9.154;2023-12-07T11:29:49;100779.81;;;2.18;100.00
71465;BME280;59274;49.874;9.154;2023-12-07T11:32:14;100785.13;;;2.31;100.00
71465;BME280;59274;49.874;9.154;2023-12-07T11:34:41;100770.97;;;2.17;100.00
71465;BME280;59274;49.874;9.154;2023-12-07T11:37:08;100765.75;;;2.12;100.00
71465;BME280;59274;49.874;9.154;2023-12-07T11:39:41;100769.78;;;2.23;100.00
71465;BME280;59274;49.874;9.154;2023-12-07T11:42:15;100762.16;;;2.17;100.00
71465;BME280;59274;49.874;9.154;2023-12-07T11:44:42;100762.53;;;2.24;100.00
71465;BME280;59274;49.874;9.154;2023-12-07T11:47:10;100748.53;;;2.27;100.00
71465;BME280;59274;49.874;9.154;2023-12-07T11:49:42;100745.00;;;2.18;100.00
71465;BME280;59274;49.874;9.154;2023-12-07T11:52:15;100743.56;;;2.20;100.00
71465;BME280;59274;49.874;9.154;2023-12-07T11:54:48;100738.53;;;2.19;100.00
71465;BME280;59274;49.874;9.154;2023-12-07T11:57:15;100742.72;;;2.11;100.00
71465;BME280;59274;49.874;9.154;2023-12-07T11:59:44;100739.75;;;2.13;100.00
71465;BME280;59274;49.874;9.154;2023-12-07T12:02:11;100750.22;;;2.23;100.00
71465;BME280;59274;49.874;9.154;2023-12-07T12:04:37;100746.63;;;2.05;100.00
71465;BME280;59274;49.874;9.154;2023-12-07T12:07:03;100728.25;;;2.12;100.00
71465;BME280;59274;49.874;9.154;2023-12-07T12:09:29;100720.16;;;2.26;100.00
71465;BME280;59274;49.874;9.154;2023-12-07T12:11:56;100719.53;;;2.29;100.00
71465;BME280;59274;49.874;9.154;2023-12-07T12:14:25;100718.72;;;2.28;100.00
71465;BME280;59274;49.874;9.154;2023-12-07T12:16:51;100723.28;;;2.28;100.00
71465;BME280;59274;49.874;9.154;2023-12-07T12:19:18;100710.25;;;2.35;100.00
71465;BME280;59274;49.874;9.154;2023-12-07T12:21:43;100716.34;;;2.49;100.00
71465;BME280;59274;49.874;9.154;2023-12-07T12:24:11;100706.31;;;2.55;100.00
71465;BME280;59274;49.874;9.154;2023-12-07T12:26:39;100710.16;;;2.40;100.00
71465;BME280;59274;49.874;9.154;2023-12-07T12:29:08;100702.16;;;2.49;100.00
71465;BME280;59274;49.874;9.154;2023-12-07T12:31:35;100691.88;;;2.42;100.00
71465;BME280;59274;49.874;9.154;2023-12-07T12:34:01;100685.66;;;2.55;100.00
71465;BME280;59274;49.874;9.154;2023-12-07T12:36:27;100676.63;;;2.51;100.00
71465;BME280;59274;49.874;9.154;2023-12-07T12:38:54;100683.97;;;2.37;100.00
71465;BME280;59274;49.874;9.154;2023-12-07T12:41:20;100676.53;;;2.34;100.00
71465;BME280;59274;49.874;9.154;2023-12-07T12:43:46;100672.72;;;2.26;100.00
71465;BME280;59274;49.874;9.154;2023-12-07T12:46:14;100667.94;;;2.23;100.00